sensor_id;sensor_type;location;lat;lon;timestamp;P1;durP1;ratioP1;P2;durP2;ratioP2
66886;SDS011;67239;51.680;5.976;2023-04-25T00:00:15;16.33;;;7.32;;
66886;SDS011;67239;51.680;5.976;2023-04-25T00:02:43;16.92;;;7.22;;
66886;SDS011;67239;51.680;5.976;2023-04-25T00:05:10;17.10;;;7.70;;
66886;SDS011;67239;51.680;5.976;2023-04-25T00:07:38;17.65;;;6.80;;
66886;SDS011;67239;51.680;5.976;2023-04-25T00:10:05;18.20;;;6.68;;
66886;SDS011;67239;51.680;5.976;2023-04-25T00:12:33;17.77;;;6.10;;
66886;SDS011;67239;51.680;5.976;2023-04-25T00:15:00;16.67;;;6.80;;
66886;SDS011;67239;51.680;5.976;2023-04-25T00:17:28;16.48;;;6.68;;
66886;SDS011;67239;51.680;5.976;2023-04-25T00:19:56;11.65;;;5.53;;
66886;SDS011;67239;51.680;5.976;2023-04-25T00:22:24;12.50;;;5.28;;
66886;SDS011;67239;51.680;5.976;2023-04-25T00:24:51;14.10;;;5.60;;
66886;SDS011;67239;51.680;5.976;2023-04-25T00:27:19;14.23;;;5.15;;
66886;SDS011;67239;51.680;5.976;2023-04-25T00:29:46;22.42;;;5.97;;
66886;SDS011;67239;51.680;5.976;2023-04-25T00:32:13;17.67;;;6.00;;
66886;SDS011;67239;51.680;5.976;2023-04-25T00:34:40;13.90;;;5.57;;
66886;SDS011;67239;51.680;5.976;2023-04-25T00:37:07;13.55;;;5.43;;
66886;SDS011;67239;51.680;5.976;2023-04-25T00:39:34;16.83;;;5.45;;
66886;SDS011;67239;51.680;5.976;2023-04-25T00:42:02;13.80;;;4.82;;
66886;SDS011;67239;51.680;5.976;2023-04-25T00:44:30;14.45;;;5.03;;
66886;SDS011;67239;51.680;5.976;2023-04-25T00:46:59;11.55;;;5.00;;
66886;SDS011;67239;51.680;5.976;2023-04-25T00:49:28;11.02;;;4.72;;
66886;SDS011;67239;51.680;5.976;2023-04-25T00:51:56;13.48;;;5.05;;
66886;SDS011;67239;51.680;5.976;2023-04-25T00:54:23;15.68;;;5.50;;
66886;SDS011;67239;51.680;5.976;2023-04-25T00:56:52;17.02;;;5.57;;
66886;SDS011;67239;51.680;5.976;2023-04-25T00:59:19;11.27;;;4.93;;
66886;SDS011;67239;51.680;5.976;2023-04-25T01:01:47;13.65;;;5.13;;
66886;SDS011;67239;51.680;5.976;2023-04-25T01:04:15;14.98;;;5.10;;
66886;SDS011;67239;51.680;5.976;2023-04-25T01:06:42;12.52;;;5.13;;
66886;SDS011;67239;51.680;5.976;2023-04-25T01:09:09;16.33;;;5.85;;
66886;SDS011;67239;51.680;5.976;2023-04-25T01:11:37;16.30;;;5.35;;
66886;SDS011;67239;51.680;5.976;2023-04-25T01:14:06;9.90;;;4.32;;
66886;SDS011;67239;51.680;5.976;2023-04-25T01:16:34;16.33;;;5.63;;
66886;SDS011;67239;51.680;5.976;2023-04-25T01:19:06;13.20;;;5.13;;
66886;SDS011;67239;51.680;5.976;2023-04-25T01:21:39;15.15;;;5.30;;
66886;SDS011;67239;51.680;5.976;2023-04-25T01:24:07;18.80;;;5.45;;
66886;SDS011;67239;51.680;5.976;2023-04-25T01:26:34;16.05;;;5.25;;
66886;SDS011;67239;51.680;5.976;2023-04-25T01:29:04;14.40;;;5.18;;
66886;SDS011;67239;51.680;5.976;2023-04-25T01:31:32;14.23;;;5.43;;
66886;SDS011;67239;51.680;5.976;2023-04-25T01:34:01;14.15;;;5.60;;
66886;SDS011;67239;51.680;5.976;2023-04-25T01:36:28;13.45;;;5.60;;
66886;SDS011;67239;51.680;5.976;2023-04-25T01:38:55;16.27;;;5.30;;
66886;SDS011;67239;51.680;5.976;2023-04-25T01:41:23;14.38;;;5.50;;
66886;SDS011;67239;51.680;5.976;2023-04-25T01:43:50;16.45;;;5.70;;
66886;SDS011;67239;51.680;5.976;2023-04-25T01:46:18;16.55;;;5.95;;
66886;SDS011;67239;51.680;5.976;2023-04-25T01:48:46;15.95;;;5.95;;
66886;SDS011;67239;51.680;5.976;2023-04-25T01:51:13;19.27;;;6.53;;
66886;SDS011;67239;51.680;5.976;2023-04-25T01:53:42;18.58;;;5.93;;
66886;SDS011;67239;51.680;5.976;2023-04-25T01:56:10;16.13;;;6.05;;
66886;SDS011;67239;51.680;5.976;2023-04-25T01:58:38;17.90;;;5.80;;
66886;SDS011;67239;51.680;5.976;2023-04-25T02:01:31;16.20;;;5.00;;
66886;SDS011;67239;51.680;5.976;2023-04-25T02:04:13;12.85;;;5.57;;
66886;SDS011;67239;51.680;5.976;2023-04-25T02:06:41;17.10;;;6.05;;
66886;SDS011;67239;51.680;5.976;2023-04-25T02:09:08;14.77;;;5.70;;
66886;SDS011;67239;51.680;5.976;2023-04-25T02:11:40;15.93;;;5.97;;
66886;SDS011;67239;51.680;5.976;2023-04-25T02:14:26;16.42;;;6.07;;
66886;SDS011;67239;51.680;5.976;2023-04-25T02:17:16;16.42;;;6.05;;
66886;SDS011;67239;51.680;5.976;2023-04-25T02:19:44;16.23;;;5.43;;
66886;SDS011;67239;51.680;5.976;2023-04-25T02:22:12;20.77;;;6.50;;
66886;SDS011;67239;51.680;5.976;2023-04-25T02:24:39;19.42;;;6.45;;
66886;SDS011;67239;51.680;5.976;2023-04-25T02:27:07;19.10;;;6.32;;
66886;SDS011;67239;51.680;5.976;2023-04-25T02:29:35;16.02;;;6.07;;
66886;SDS011;67239;51.680;5.976;2023-04-25T02:32:02;18.75;;;6.28;;
66886;SDS011;67239;51.680;5.976;2023-04-25T02:34:29;21.50;;;5.97;;
66886;SDS011;67239;51.680;5.976;2023-04-25T02:36:59;19.92;;;6.25;;
66886;SDS011;67239;51.680;5.976;2023-04-25T02:39:27;18.17;;;6.65;;
66886;SDS011;67239;51.680;5.976;2023-04-25T02:41:55;19.58;;;6.85;;
66886;SDS011;67239;51.680;5.976;2023-04-25T02:44:22;20.88;;;6.82;;
66886;SDS011;67239;51.680;5.976;2023-04-25T02:46:49;18.67;;;6.35;;
66886;SDS011;67239;51.680;5.976;2023-04-25T02:49:16;19.52;;;6.32;;
66886;SDS011;67239;51.680;5.976;2023-04-25T02:51:52;25.48;;;7.07;;
66886;SDS011;67239;51.680;5.976;2023-04-25T02:54:19;19.73;;;6.57;;
66886;SDS011;67239;51.680;5.976;2023-04-25T02:56:47;22.42;;;7.03;;
66886;SDS011;67239;51.680;5.976;2023-04-25T02:59:20;23.83;;;6.68;;
66886;SDS011;67239;51.680;5.976;2023-04-25T03:01:47;20.67;;;7.07;;
66886;SDS011;67239;51.680;5.976;2023-04-25T03:04:14;20.02;;;7.45;;
66886;SDS011;67239;51.680;5.976;2023-04-25T03:06:41;18.98;;;7.60;;
66886;SDS011;67239;51.680;5.976;2023-04-25T03:09:08;20.48;;;8.63;;
66886;SDS011;67239;51.680;5.976;2023-04-25T03:11:37;23.15;;;8.98;;
66886;SDS011;67239;51.680;5.976;2023-04-25T03:14:05;20.63;;;9.15;;
66886;SDS011;67239;51.680;5.976;2023-04-25T03:16:33;20.73;;;8.90;;
66886;SDS011;67239;51.680;5.976;2023-04-25T03:19:00;22.30;;;8.43;;
66886;SDS011;67239;51.680;5.976;2023-04-25T03:21:29;21.90;;;9.23;;
66886;SDS011;67239;51.680;5.976;2023-04-25T03:24:01;20.65;;;9.43;;
66886;SDS011;67239;51.680;5.976;2023-04-25T03:26:30;22.55;;;9.10;;
66886;SDS011;67239;51.680;5.976;2023-04-25T03:28:58;22.80;;;9.68;;
66886;SDS011;67239;51.680;5.976;2023-04-25T03:31:26;23.17;;;9.25;;
66886;SDS011;67239;51.680;5.976;2023-04-25T03:33:53;24.33;;;9.73;;
66886;SDS011;67239;51.680;5.976;2023-04-25T03:36:22;20.65;;;7.57;;
66886;SDS011;67239;51.680;5.976;2023-04-25T03:38:49;20.42;;;7.55;;
66886;SDS011;67239;51.680;5.976;2023-04-25T03:41:17;20.10;;;7.95;;
66886;SDS011;67239;51.680;5.976;2023-04-25T03:43:48;22.63;;;7.30;;
66886;SDS011;67239;51.680;5.976;2023-04-25T03:46:16;24.08;;;7.82;;
66886;SDS011;67239;51.680;5.976;2023-04-25T03:48:45;26.83;;;7.25;;
66886;SDS011;67239;51.680;5.976;2023-04-25T03:51:18;22.00;;;7.37;;
66886;SDS011;67239;51.680;5.976;2023-04-25T03:53:47;21.00;;;7.50;;
66886;SDS011;67239;51.680;5.976;2023-04-25T03:56:20;22.98;;;7.53;;
66886;SDS011;67239;51.680;5.976;2023-04-25T03:58:56;17.77;;;7.35;;
66886;SDS011;67239;51.680;5.976;2023-04-25T04:01:26;22.52;;;6.93;;
66886;SDS011;67239;51.680;5.976;2023-04-25T04:03:53;23.80;;;7.57;;
66886;SDS011;67239;51.680;5.976;2023-04-25T04:06:23;20.02;;;7.30;;
66886;SDS011;67239;51.680;5.976;2023-04-25T04:08:57;24.63;;;7.60;;
66886;SDS011;67239;51.680;5.976;2023-04-25T04:11:24;21.08;;;7.50;;
66886;SDS011;67239;51.680;5.976;2023-04-25T04:13:51;18.40;;;7.43;;
66886;SDS011;67239;51.680;5.976;2023-04-25T04:16:19;16.52;;;6.47;;
66886;SDS011;67239;51.680;5.976;2023-04-25T04:18:47;21.40;;;7.35;;
66886;SDS011;67239;51.680;5.976;2023-04-25T04:21:14;17.38;;;6.53;;
66886;SDS011;67239;51.680;5.976;2023-04-25T04:23:41;21.10;;;7.70;;
66886;SDS011;67239;51.680;5.976;2023-04-25T04:26:09;17.40;;;7.15;;
66886;SDS011;67239;51.680;5.976;2023-04-25T04:28:55;25.45;;;7.95;;
66886;SDS011;67239;51.680;5.976;2023-04-25T04:31:32;24.58;;;7.47;;
66886;SDS011;67239;51.680;5.976;2023-04-25T04:34:00;23.45;;;7.03;;
66886;SDS011;67239;51.680;5.976;2023-04-25T04:36:29;24.50;;;7.40;;
66886;SDS011;67239;51.680;5.976;2023-04-25T04:39:00;22.65;;;7.13;;
66886;SDS011;67239;51.680;5.976;2023-04-25T04:41:35;20.08;;;6.68;;
66886;SDS011;67239;51.680;5.976;2023-04-25T04:44:24;23.88;;;7.25;;
66886;SDS011;67239;51.680;5.976;2023-04-25T04:47:11;38.08;;;7.78;;
66886;SDS011;67239;51.680;5.976;2023-04-25T04:50:10;17.52;;;6.93;;
66886;SDS011;67239;51.680;5.976;2023-04-25T04:52:56;18.83;;;7.22;;
66886;SDS011;67239;51.680;5.976;2023-04-25T04:55:43;21.98;;;7.10;;
66886;SDS011;67239;51.680;5.976;2023-04-25T04:58:29;21.67;;;7.20;;
66886;SDS011;67239;51.680;5.976;2023-04-25T05:01:31;22.98;;;7.22;;
66886;SDS011;67239;51.680;5.976;2023-04-25T05:04:20;18.73;;;6.72;;
66886;SDS011;67239;51.680;5.976;2023-04-25T05:07:06;15.15;;;6.40;;
66886;SDS011;67239;51.680;5.976;2023-04-25T05:10:03;24.08;;;7.22;;
66886;SDS011;67239;51.680;5.976;2023-04-25T05:12:59;23.63;;;6.28;;
66886;SDS011;67239;51.680;5.976;2023-04-25T05:16:02;16.02;;;5.75;;
66886;SDS011;67239;51.680;5.976;2023-04-25T05:18:55;14.93;;;4.97;;
66886;SDS011;67239;51.680;5.976;2023-04-25T05:21:28;14.60;;;5.43;;
66886;SDS011;67239;51.680;5.976;2023-04-25T05:24:09;20.25;;;5.18;;
66886;SDS011;67239;51.680;5.976;2023-04-25T05:26:56;15.77;;;4.30;;
66886;SDS011;67239;51.680;5.976;2023-04-25T05:29:39;17.23;;;4.93;;
66886;SDS011;67239;51.680;5.976;2023-04-25T05:32:17;11.60;;;3.95;;
66886;SDS011;67239;51.680;5.976;2023-04-25T05:34:46;13.88;;;3.70;;
66886;SDS011;67239;51.680;5.976;2023-04-25T05:37:22;17.38;;;4.38;;
66886;SDS011;67239;51.680;5.976;2023-04-25T05:39:54;22.00;;;4.68;;
66886;SDS011;67239;51.680;5.976;2023-04-25T05:42:51;13.35;;;4.25;;
66886;SDS011;67239;51.680;5.976;2023-04-25T05:45:20;14.10;;;4.03;;
66886;SDS011;67239;51.680;5.976;2023-04-25T05:48:23;17.80;;;4.82;;
66886;SDS011;67239;51.680;5.976;2023-04-25T05:50:58;13.18;;;4.60;;
66886;SDS011;67239;51.680;5.976;2023-04-25T05:53:46;15.85;;;4.70;;
66886;SDS011;67239;51.680;5.976;2023-04-25T05:56:20;16.07;;;5.27;;
66886;SDS011;67239;51.680;5.976;2023-04-25T05:58:53;13.85;;;5.38;;
66886;SDS011;67239;51.680;5.976;2023-04-25T06:01:24;11.18;;;4.70;;
66886;SDS011;67239;51.680;5.976;2023-04-25T06:03:51;17.58;;;5.13;;
66886;SDS011;67239;51.680;5.976;2023-04-25T06:06:22;13.68;;;4.40;;
66886;SDS011;67239;51.680;5.976;2023-04-25T06:08:49;16.40;;;4.38;;
66886;SDS011;67239;51.680;5.976;2023-04-25T06:11:17;14.95;;;4.45;;
66886;SDS011;67239;51.680;5.976;2023-04-25T06:13:45;15.18;;;3.67;;
66886;SDS011;67239;51.680;5.976;2023-04-25T06:16:15;18.65;;;4.47;;
66886;SDS011;67239;51.680;5.976;2023-04-25T06:18:42;24.65;;;4.90;;
66886;SDS011;67239;51.680;5.976;2023-04-25T06:21:09;12.25;;;3.88;;
66886;SDS011;67239;51.680;5.976;2023-04-25T06:23:36;14.85;;;3.88;;
66886;SDS011;67239;51.680;5.976;2023-04-25T06:26:06;20.90;;;4.80;;
66886;SDS011;67239;51.680;5.976;2023-04-25T06:28:36;14.52;;;4.22;;
66886;SDS011;67239;51.680;5.976;2023-04-25T06:31:04;14.82;;;3.55;;
66886;SDS011;67239;51.680;5.976;2023-04-25T06:33:31;17.52;;;3.55;;
66886;SDS011;67239;51.680;5.976;2023-04-25T06:35:59;11.88;;;3.33;;
66886;SDS011;67239;51.680;5.976;2023-04-25T06:38:27;15.80;;;3.67;;
66886;SDS011;67239;51.680;5.976;2023-04-25T06:40:56;11.95;;;3.50;;
66886;SDS011;67239;51.680;5.976;2023-04-25T06:43:24;14.48;;;3.40;;
66886;SDS011;67239;51.680;5.976;2023-04-25T06:45:51;13.13;;;3.17;;
66886;SDS011;67239;51.680;5.976;2023-04-25T06:48:21;10.98;;;3.17;;
66886;SDS011;67239;51.680;5.976;2023-04-25T06:50:48;20.73;;;3.72;;
66886;SDS011;67239;51.680;5.976;2023-04-25T06:53:15;15.07;;;3.40;;
66886;SDS011;67239;51.680;5.976;2023-04-25T06:55:46;19.90;;;3.72;;
66886;SDS011;67239;51.680;5.976;2023-04-25T06:58:17;9.02;;;2.88;;
66886;SDS011;67239;51.680;5.976;2023-04-25T07:01:03;15.00;;;3.13;;
66886;SDS011;67239;51.680;5.976;2023-04-25T07:03:32;9.85;;;3.10;;
66886;SDS011;67239;51.680;5.976;2023-04-25T07:06:05;11.75;;;2.75;;
66886;SDS011;67239;51.680;5.976;2023-04-25T07:08:33;9.32;;;2.72;;
66886;SDS011;67239;51.680;5.976;2023-04-25T07:11:00;12.38;;;2.97;;
66886;SDS011;67239;51.680;5.976;2023-04-25T07:13:27;11.75;;;3.03;;
66886;SDS011;67239;51.680;5.976;2023-04-25T07:15:54;13.70;;;3.13;;
66886;SDS011;67239;51.680;5.976;2023-04-25T07:18:23;11.85;;;2.60;;
66886;SDS011;67239;51.680;5.976;2023-04-25T07:20:51;13.38;;;2.40;;
66886;SDS011;67239;51.680;5.976;2023-04-25T07:23:19;14.05;;;2.80;;
66886;SDS011;67239;51.680;5.976;2023-04-25T07:25:47;12.35;;;2.30;;
66886;SDS011;67239;51.680;5.976;2023-04-25T07:28:19;10.18;;;2.33;;
66886;SDS011;67239;51.680;5.976;2023-04-25T07:30:47;10.63;;;2.47;;
66886;SDS011;67239;51.680;5.976;2023-04-25T07:33:14;10.13;;;1.98;;
66886;SDS011;67239;51.680;5.976;2023-04-25T07:35:41;10.63;;;2.70;;
66886;SDS011;67239;51.680;5.976;2023-04-25T07:38:09;15.82;;;2.30;;
66886;SDS011;67239;51.680;5.976;2023-04-25T07:40:38;10.68;;;2.53;;
66886;SDS011;67239;51.680;5.976;2023-04-25T07:43:07;10.40;;;2.10;;
66886;SDS011;67239;51.680;5.976;2023-04-25T07:45:45;15.30;;;2.13;;
66886;SDS011;67239;51.680;5.976;2023-04-25T07:48:19;7.55;;;1.70;;
66886;SDS011;67239;51.680;5.976;2023-04-25T07:50:47;9.93;;;2.50;;
66886;SDS011;67239;51.680;5.976;2023-04-25T07:53:14;7.93;;;1.65;;
66886;SDS011;67239;51.680;5.976;2023-04-25T07:55:49;6.57;;;1.40;;
66886;SDS011;67239;51.680;5.976;2023-04-25T07:58:33;8.50;;;2.08;;
66886;SDS011;67239;51.680;5.976;2023-04-25T08:01:08;7.85;;;2.03;;
66886;SDS011;67239;51.680;5.976;2023-04-25T08:03:50;9.10;;;1.67;;
66886;SDS011;67239;51.680;5.976;2023-04-25T08:06:29;14.48;;;1.98;;
66886;SDS011;67239;51.680;5.976;2023-04-25T08:09:13;13.20;;;2.42;;
66886;SDS011;67239;51.680;5.976;2023-04-25T08:11:41;8.40;;;2.00;;
66886;SDS011;67239;51.680;5.976;2023-04-25T08:14:12;8.40;;;1.77;;
66886;SDS011;67239;51.680;5.976;2023-04-25T08:16:42;8.77;;;1.98;;
66886;SDS011;67239;51.680;5.976;2023-04-25T08:19:10;8.98;;;1.70;;
66886;SDS011;67239;51.680;5.976;2023-04-25T08:21:37;12.85;;;1.40;;
66886;SDS011;67239;51.680;5.976;2023-04-25T08:24:10;7.93;;;1.45;;
66886;SDS011;67239;51.680;5.976;2023-04-25T08:26:39;6.82;;;1.20;;
66886;SDS011;67239;51.680;5.976;2023-04-25T08:29:09;12.57;;;1.85;;
66886;SDS011;67239;51.680;5.976;2023-04-25T08:31:39;6.65;;;1.30;;
66886;SDS011;67239;51.680;5.976;2023-04-25T08:34:09;6.60;;;1.55;;
66886;SDS011;67239;51.680;5.976;2023-04-25T08:36:42;13.48;;;1.50;;
66886;SDS011;67239;51.680;5.976;2023-04-25T08:39:24;9.65;;;1.63;;
66886;SDS011;67239;51.680;5.976;2023-04-25T08:42:09;7.18;;;1.65;;
66886;SDS011;67239;51.680;5.976;2023-04-25T08:44:39;5.57;;;1.10;;
66886;SDS011;67239;51.680;5.976;2023-04-25T08:47:06;6.40;;;1.45;;
66886;SDS011;67239;51.680;5.976;2023-04-25T08:50:00;10.65;;;1.88;;
66886;SDS011;67239;51.680;5.976;2023-04-25T08:52:32;22.35;;;2.95;;
66886;SDS011;67239;51.680;5.976;2023-04-25T08:55:13;9.60;;;1.20;;
66886;SDS011;67239;51.680;5.976;2023-04-25T08:57:42;6.93;;;1.33;;
66886;SDS011;67239;51.680;5.976;2023-04-25T09:00:11;6.80;;;1.70;;
66886;SDS011;67239;51.680;5.976;2023-04-25T09:02:42;7.97;;;1.30;;
66886;SDS011;67239;51.680;5.976;2023-04-25T09:05:12;20.48;;;1.98;;
66886;SDS011;67239;51.680;5.976;2023-04-25T09:07:42;25.70;;;2.80;;
66886;SDS011;67239;51.680;5.976;2023-04-25T09:10:10;26.60;;;2.65;;
66886;SDS011;67239;51.680;5.976;2023-04-25T09:12:38;9.48;;;1.60;;
66886;SDS011;67239;51.680;5.976;2023-04-25T09:15:08;6.95;;;1.40;;
66886;SDS011;67239;51.680;5.976;2023-04-25T09:17:57;9.40;;;2.20;;
66886;SDS011;67239;51.680;5.976;2023-04-25T09:20:31;5.57;;;1.40;;
66886;SDS011;67239;51.680;5.976;2023-04-25T09:23:02;4.60;;;1.23;;
66886;SDS011;67239;51.680;5.976;2023-04-25T09:25:37;8.35;;;1.55;;
66886;SDS011;67239;51.680;5.976;2023-04-25T09:28:10;3.38;;;1.20;;
66886;SDS011;67239;51.680;5.976;2023-04-25T09:30:38;8.57;;;1.67;;
66886;SDS011;67239;51.680;5.976;2023-04-25T09:33:29;6.95;;;1.77;;
66886;SDS011;67239;51.680;5.976;2023-04-25T09:36:06;8.85;;;1.58;;
66886;SDS011;67239;51.680;5.976;2023-04-25T09:39:01;6.65;;;1.23;;
66886;SDS011;67239;51.680;5.976;2023-04-25T09:41:33;12.98;;;1.40;;
66886;SDS011;67239;51.680;5.976;2023-04-25T09:44:04;5.00;;;1.30;;
66886;SDS011;67239;51.680;5.976;2023-04-25T09:46:35;9.13;;;1.50;;
66886;SDS011;67239;51.680;5.976;2023-04-25T09:49:06;14.82;;;1.70;;
66886;SDS011;67239;51.680;5.976;2023-04-25T09:51:58;8.63;;;1.20;;
66886;SDS011;67239;51.680;5.976;2023-04-25T09:54:51;9.82;;;1.30;;
66886;SDS011;67239;51.680;5.976;2023-04-25T09:57:25;11.77;;;1.40;;
66886;SDS011;67239;51.680;5.976;2023-04-25T09:59:57;11.35;;;1.52;;
66886;SDS011;67239;51.680;5.976;2023-04-25T10:02:39;13.48;;;1.75;;
66886;SDS011;67239;51.680;5.976;2023-04-25T10:05:30;6.22;;;1.55;;
66886;SDS011;67239;51.680;5.976;2023-04-25T10:08:02;8.90;;;1.52;;
66886;SDS011;67239;51.680;5.976;2023-04-25T10:10:33;6.75;;;1.17;;
66886;SDS011;67239;51.680;5.976;2023-04-25T10:13:05;7.10;;;1.20;;
66886;SDS011;67239;51.680;5.976;2023-04-25T10:15:34;7.63;;;1.30;;
66886;SDS011;67239;51.680;5.976;2023-04-25T10:18:06;8.23;;;1.58;;
66886;SDS011;67239;51.680;5.976;2023-04-25T10:20:33;8.27;;;1.42;;
66886;SDS011;67239;51.680;5.976;2023-04-25T10:23:15;4.65;;;0.98;;
66886;SDS011;67239;51.680;5.976;2023-04-25T10:25:43;13.88;;;1.42;;
66886;SDS011;67239;51.680;5.976;2023-04-25T10:28:13;4.43;;;1.15;;
66886;SDS011;67239;51.680;5.976;2023-04-25T10:31:00;6.32;;;1.13;;
66886;SDS011;67239;51.680;5.976;2023-04-25T10:33:35;5.30;;;1.10;;
66886;SDS011;67239;51.680;5.976;2023-04-25T10:36:23;8.07;;;1.15;;
66886;SDS011;67239;51.680;5.976;2023-04-25T10:38:53;3.08;;;0.70;;
66886;SDS011;67239;51.680;5.976;2023-04-25T10:41:21;5.55;;;1.20;;
66886;SDS011;67239;51.680;5.976;2023-04-25T10:43:49;6.15;;;1.50;;
66886;SDS011;67239;51.680;5.976;2023-04-25T10:46:28;4.97;;;1.13;;
66886;SDS011;67239;51.680;5.976;2023-04-25T10:48:59;6.78;;;1.30;;
66886;SDS011;67239;51.680;5.976;2023-04-25T10:51:29;3.80;;;1.08;;
66886;SDS011;67239;51.680;5.976;2023-04-25T10:54:21;5.68;;;1.00;;
66886;SDS011;67239;51.680;5.976;2023-04-25T10:56:49;4.28;;;1.30;;
66886;SDS011;67239;51.680;5.976;2023-04-25T10:59:17;8.30;;;1.70;;
66886;SDS011;67239;51.680;5.976;2023-04-25T11:01:46;6.50;;;1.40;;
66886;SDS011;67239;51.680;5.976;2023-04-25T11:04:25;8.43;;;1.30;;
66886;SDS011;67239;51.680;5.976;2023-04-25T11:10:08;6.68;;;1.27;;
66886;SDS011;67239;51.680;5.976;2023-04-25T11:12:35;5.32;;;1.02;;
66886;SDS011;67239;51.680;5.976;2023-04-25T11:15:03;9.93;;;1.02;;
66886;SDS011;67239;51.680;5.976;2023-04-25T11:17:35;8.25;;;1.50;;
66886;SDS011;67239;51.680;5.976;2023-04-25T11:20:02;9.43;;;1.60;;
66886;SDS011;67239;51.680;5.976;2023-04-25T11:22:34;12.30;;;1.63;;
66886;SDS011;67239;51.680;5.976;2023-04-25T11:25:05;5.32;;;1.10;;
66886;SDS011;67239;51.680;5.976;2023-04-25T11:30:24;5.50;;;1.13;;
66886;SDS011;67239;51.680;5.976;2023-04-25T11:32:53;7.70;;;1.30;;
66886;SDS011;67239;51.680;5.976;2023-04-25T11:35:20;6.25;;;1.20;;
66886;SDS011;67239;51.680;5.976;2023-04-25T11:37:49;8.15;;;1.30;;
66886;SDS011;67239;51.680;5.976;2023-04-25T11:40:17;5.15;;;0.90;;
66886;SDS011;67239;51.680;5.976;2023-04-25T11:42:45;2.85;;;0.75;;
66886;SDS011;67239;51.680;5.976;2023-04-25T11:45:14;5.60;;;1.25;;
66886;SDS011;67239;51.680;5.976;2023-04-25T11:47:42;8.38;;;1.85;;
66886;SDS011;67239;51.680;5.976;2023-04-25T11:50:09;2.95;;;0.90;;
66886;SDS011;67239;51.680;5.976;2023-04-25T11:52:37;7.15;;;1.48;;
66886;SDS011;67239;51.680;5.976;2023-04-25T11:55:07;7.45;;;1.25;;
66886;SDS011;67239;51.680;5.976;2023-04-25T11:57:37;6.32;;;1.27;;
66886;SDS011;67239;51.680;5.976;2023-04-25T12:00:11;5.43;;;1.40;;
66886;SDS011;67239;51.680;5.976;2023-04-25T12:02:52;7.30;;;1.58;;
66886;SDS011;67239;51.680;5.976;2023-04-25T12:05:31;7.70;;;1.30;;
66886;SDS011;67239;51.680;5.976;2023-04-25T12:08:11;6.07;;;1.10;;
66886;SDS011;67239;51.680;5.976;2023-04-25T12:10:40;6.35;;;1.23;;
66886;SDS011;67239;51.680;5.976;2023-04-25T12:13:20;5.63;;;0.60;;
66886;SDS011;67239;51.680;5.976;2023-04-25T12:15:49;7.20;;;1.67;;
66886;SDS011;67239;51.680;5.976;2023-04-25T12:18:20;9.30;;;1.95;;
66886;SDS011;67239;51.680;5.976;2023-04-25T12:20:52;5.75;;;1.05;;
66886;SDS011;67239;51.680;5.976;2023-04-25T12:23:27;6.68;;;1.33;;
66886;SDS011;67239;51.680;5.976;2023-04-25T12:25:55;10.27;;;1.48;;
66886;SDS011;67239;51.680;5.976;2023-04-25T12:28:23;5.18;;;1.15;;
66886;SDS011;67239;51.680;5.976;2023-04-25T12:33:27;5.57;;;1.00;;
66886;SDS011;67239;51.680;5.976;2023-04-25T12:35:57;13.32;;;1.75;;
66886;SDS011;67239;51.680;5.976;2023-04-25T12:38:26;5.50;;;1.02;;
66886;SDS011;67239;51.680;5.976;2023-04-25T12:40:58;15.63;;;1.40;;
66886;SDS011;67239;51.680;5.976;2023-04-25T12:43:25;6.03;;;1.08;;
66886;SDS011;67239;51.680;5.976;2023-04-25T12:45:53;5.65;;;0.95;;
66886;SDS011;67239;51.680;5.976;2023-04-25T12:48:22;4.20;;;0.95;;
66886;SDS011;67239;51.680;5.976;2023-04-25T12:50:52;9.48;;;1.30;;
66886;SDS011;67239;51.680;5.976;2023-04-25T12:53:22;8.77;;;1.05;;
66886;SDS011;67239;51.680;5.976;2023-04-25T12:55:53;6.53;;;1.30;;
66886;SDS011;67239;51.680;5.976;2023-04-25T12:58:21;8.55;;;1.20;;
66886;SDS011;67239;51.680;5.976;2023-04-25T13:00:48;9.35;;;1.17;;
66886;SDS011;67239;51.680;5.976;2023-04-25T13:03:15;12.70;;;0.90;;
66886;SDS011;67239;51.680;5.976;2023-04-25T13:05:43;2.42;;;0.60;;
66886;SDS011;67239;51.680;5.976;2023-04-25T13:08:10;4.60;;;0.80;;
66886;SDS011;67239;51.680;5.976;2023-04-25T13:10:38;2.30;;;0.80;;
66886;SDS011;67239;51.680;5.976;2023-04-25T13:13:06;11.32;;;1.30;;
66886;SDS011;67239;51.680;5.976;2023-04-25T13:15:33;6.40;;;1.20;;
66886;SDS011;67239;51.680;5.976;2023-04-25T13:18:03;8.35;;;1.25;;
66886;SDS011;67239;51.680;5.976;2023-04-25T13:20:32;12.38;;;1.50;;
66886;SDS011;67239;51.680;5.976;2023-04-25T13:23:00;7.43;;;1.40;;
66886;SDS011;67239;51.680;5.976;2023-04-25T13:25:28;7.07;;;1.30;;
66886;SDS011;67239;51.680;5.976;2023-04-25T13:27:55;6.28;;;1.20;;
66886;SDS011;67239;51.680;5.976;2023-04-25T13:30:22;4.50;;;1.30;;
66886;SDS011;67239;51.680;5.976;2023-04-25T13:32:50;8.05;;;1.27;;
66886;SDS011;67239;51.680;5.976;2023-04-25T13:35:17;4.80;;;1.25;;
66886;SDS011;67239;51.680;5.976;2023-04-25T13:37:44;12.30;;;1.63;;
66886;SDS011;67239;51.680;5.976;2023-04-25T13:40:11;8.10;;;1.40;;
66886;SDS011;67239;51.680;5.976;2023-04-25T13:42:39;5.63;;;1.45;;
66886;SDS011;67239;51.680;5.976;2023-04-25T13:45:33;17.13;;;1.50;;
66886;SDS011;67239;51.680;5.976;2023-04-25T13:48:00;5.82;;;1.00;;
66886;SDS011;67239;51.680;5.976;2023-04-25T13:50:28;4.75;;;1.00;;
66886;SDS011;67239;51.680;5.976;2023-04-25T13:52:55;6.50;;;0.93;;
66886;SDS011;67239;51.680;5.976;2023-04-25T13:55:22;8.77;;;1.10;;
66886;SDS011;67239;51.680;5.976;2023-04-25T13:57:49;7.32;;;1.15;;
66886;SDS011;67239;51.680;5.976;2023-04-25T14:00:16;2.95;;;0.77;;
66886;SDS011;67239;51.680;5.976;2023-04-25T14:02:44;5.30;;;0.90;;
66886;SDS011;67239;51.680;5.976;2023-04-25T14:05:13;3.28;;;0.95;;
66886;SDS011;67239;51.680;5.976;2023-04-25T14:07:40;7.50;;;0.80;;
66886;SDS011;67239;51.680;5.976;2023-04-25T14:10:07;5.85;;;1.05;;
66886;SDS011;67239;51.680;5.976;2023-04-25T14:12:34;10.68;;;1.15;;
66886;SDS011;67239;51.680;5.976;2023-04-25T14:15:02;18.10;;;2.30;;
66886;SDS011;67239;51.680;5.976;2023-04-25T14:17:29;5.93;;;1.10;;
66886;SDS011;67239;51.680;5.976;2023-04-25T14:19:57;7.00;;;1.05;;
66886;SDS011;67239;51.680;5.976;2023-04-25T14:22:24;16.23;;;1.95;;
66886;SDS011;67239;51.680;5.976;2023-04-25T14:24:52;8.00;;;1.17;;
66886;SDS011;67239;51.680;5.976;2023-04-25T14:27:19;16.50;;;1.42;;
66886;SDS011;67239;51.680;5.976;2023-04-25T14:29:46;3.20;;;0.80;;
66886;SDS011;67239;51.680;5.976;2023-04-25T14:32:14;4.45;;;0.82;;
66886;SDS011;67239;51.680;5.976;2023-04-25T14:34:42;7.20;;;1.10;;
66886;SDS011;67239;51.680;5.976;2023-04-25T14:37:09;34.42;;;2.72;;
66886;SDS011;67239;51.680;5.976;2023-04-25T14:39:36;10.02;;;1.00;;
66886;SDS011;67239;51.680;5.976;2023-04-25T14:42:04;2.90;;;0.88;;
66886;SDS011;67239;51.680;5.976;2023-04-25T14:44:31;14.57;;;1.13;;
66886;SDS011;67239;51.680;5.976;2023-04-25T14:46:58;10.20;;;1.27;;
66886;SDS011;67239;51.680;5.976;2023-04-25T14:49:25;7.15;;;1.60;;
66886;SDS011;67239;51.680;5.976;2023-04-25T14:51:52;9.23;;;1.20;;
66886;SDS011;67239;51.680;5.976;2023-04-25T14:54:19;3.65;;;1.00;;
66886;SDS011;67239;51.680;5.976;2023-04-25T14:56:46;5.97;;;1.00;;
66886;SDS011;67239;51.680;5.976;2023-04-25T14:59:13;2.38;;;0.70;;
66886;SDS011;67239;51.680;5.976;2023-04-25T15:01:40;6.35;;;0.95;;
66886;SDS011;67239;51.680;5.976;2023-04-25T15:04:07;3.38;;;0.80;;
66886;SDS011;67239;51.680;5.976;2023-04-25T15:06:35;2.35;;;0.85;;
66886;SDS011;67239;51.680;5.976;2023-04-25T15:09:02;8.98;;;1.02;;
66886;SDS011;67239;51.680;5.976;2023-04-25T15:11:29;3.50;;;0.90;;
66886;SDS011;67239;51.680;5.976;2023-04-25T15:13:57;3.35;;;1.13;;